Time;durP1;ratioP1;P1;durP2;ratioP2;P2;SDS_P1;SDS_P2;PMS_P1;PMS_P2;Temp;Humidity;BMP_temperature;BMP_pressure;BME280_temperature;BME280_humidity;BME280_pressure;Samples;Min_cycle;Max_cycle;Signal;HPM_P1;HPM_P2
2022/09/16 00:01:48;;;;;;;0.90;0.67;;;16.30;35.50;;;;;;5117421;28;20444;-73
2022/09/16 00:04:19;;;;;;;1.00;0.63;;;16.30;32.70;;;;;;5115223;28;20467;-72
2022/09/16 00:06:46;;;;;;;1.33;0.60;;;16.20;24.40;;;;;;5117380;28;20811;-72
2022/09/16 00:09:12;;;;;;;1.13;0.77;;;16.20;34.80;;;;;;5117099;28;20455;-72
2022/09/16 00:11:39;;;;;;;1.60;0.60;;;16.20;48.80;;;;;;5119692;28;20501;-72
2022/09/16 00:14:06;;;;;;;1.80;0.83;;;16.20;40.80;;;;;;5117833;28;21075;-72
2022/09/16 00:16:33;;;;;;;1.60;0.80;;;16.20;33.60;;;;;;5119367;28;20479;-73
2022/09/16 00:19:02;;;;;;;2.60;0.67;;;16.30;41.10;;;;;;5117028;28;20480;-72
2022/09/16 00:21:30;;;;;;;2.20;0.70;;;16.20;32.00;;;;;;5119791;28;20502;-72
2022/09/16 00:23:57;;;;;;;1.50;0.70;;;16.10;41.20;;;;;;5117038;28;20503;-72
2022/09/16 00:26:25;;;;;;;0.90;0.60;;;16.00;53.50;;;;;;5119294;28;20440;-73
2022/09/16 00:28:52;;;;;;;1.30;0.80;;;16.10;70.60;;;;;;5116916;28;20456;-73
2022/09/16 00:31:19;;;;;;;1.00;0.60;;;16.20;66.60;;;;;;5119483;28;20902;-74
2022/09/16 00:33:45;;;;;;;1.40;0.70;;;16.20;54.20;;;;;;5117111;28;20544;-73
2022/09/16 00:36:15;;;;;;;1.03;0.80;;;16.40;46.40;;;;;;5119011;28;20988;-73
2022/09/16 00:38:43;;;;;;;1.30;0.87;;;16.40;39.10;;;;;;5116775;28;20456;-73
2022/09/16 00:41:15;;;;;;;2.00;0.70;;;16.50;35.80;;;;;;5118761;28;20745;-74
2022/09/16 00:43:51;;;;;;;1.00;0.73;;;16.50;31.70;;;;;;5101601;28;20464;-74
2022/09/16 00:46:21;;;;;;;1.03;0.70;;;16.50;37.20;;;;;;5116476;28;20436;-74
2022/09/16 00:48:48;;;;;;;2.80;0.80;;;16.40;24.70;;;;;;5118634;28;20458;-73
2022/09/16 00:51:16;;;;;;;0.90;0.60;;;16.30;46.10;;;;;;5115487;28;20554;-73
2022/09/16 00:53:50;;;;;;;1.20;0.60;;;16.30;50.90;;;;;;5118721;28;20515;-73
2022/09/16 00:56:21;;;;;;;1.50;0.90;;;16.40;54.60;;;;;;5115824;28;20776;-73
2022/09/16 00:58:53;;;;;;;0.90;0.80;;;16.30;40.40;;;;;;5117756;28;20969;-73
2022/09/16 01:01:21;;;;;;;1.23;0.70;;;16.30;50.00;;;;;;5114865;28;20455;-73
2022/09/16 01:03:52;;;;;;;1.10;0.80;;;16.10;57.10;;;;;;5116271;28;20455;-73
2022/09/16 01:06:19;;;;;;;1.20;0.67;;;16.10;82.50;;;;;;5113893;28;20449;-73
2022/09/16 01:08:49;;;;;;;1.20;0.70;;;16.10;82.50;;;;;;5116096;28;20479;-73
2022/09/16 01:11:16;;;;;;;3.87;0.90;;;16.00;91.00;;;;;;5114957;28;20452;-73
2022/09/16 01:13:44;;;;;;;2.10;0.80;;;16.00;73.00;;;;;;5116704;28;20445;-72
2022/09/16 01:16:16;;;;;;;1.27;0.67;;;16.00;90.10;;;;;;5114714;28;20941;-72
2022/09/16 01:18:48;;;;;;;1.20;0.80;;;16.10;88.30;;;;;;5117493;28;20559;-72
2022/09/16 01:21:37;;;;;;;1.20;0.80;;;16.10;57.60;;;;;;5116267;28;20452;-72
2022/09/16 01:24:35;;;;;;;1.43;0.70;;;16.00;57.00;;;;;;5118369;28;20802;-72
2022/09/16 01:27:21;;;;;;;1.00;0.70;;;16.00;80.30;;;;;;5115598;28;20448;-73
2022/09/16 01:33:21;;;;;;;1.33;0.60;;;16.00;60.40;;;;;;5157312;27;20317;-74
2022/09/16 01:36:03;;;;;;;1.63;0.73;;;16.00;60.00;;;;;;5134434;28;20455;-73
2022/09/16 01:38:46;;;;;;;1.30;0.90;;;16.00;88.30;;;;;;5136073;28;20871;-72
2022/09/16 01:41:26;;;;;;;1.33;0.90;;;15.90;80.00;;;;;;5133915;28;20439;-72
2022/09/16 01:44:01;;;;;;;1.20;0.70;;;16.00;86.80;;;;;;5135859;28;20448;-74
2022/09/16 01:46:37;;;;;;;2.37;0.70;;;15.90;75.30;;;;;;5133879;28;20752;-72
2022/09/16 01:49:16;;;;;;;1.20;0.80;;;15.70;66.70;;;;;;5135805;28;20448;-72
2022/09/16 01:51:51;;;;;;;1.73;0.70;;;15.50;79.40;;;;;;5133615;28;20487;-72
2022/09/16 01:54:27;;;;;;;2.20;0.80;;;15.50;99.90;;;;;;5135788;28;20440;-73
2022/09/16 01:57:01;;;;;;;1.23;0.70;;;15.70;92.70;;;;;;5134064;28;20482;-73
2022/09/16 01:59:36;;;;;;;2.37;0.80;;;15.80;75.30;;;;;;5135490;28;20448;-73
2022/09/16 02:02:07;;;;;;;1.20;0.70;;;15.70;77.50;;;;;;5134232;28;20740;-73
2022/09/16 02:04:39;;;;;;;0.97;0.60;;;15.80;75.30;;;;;;5135255;28;20501;-73
2022/09/16 02:07:10;;;;;;;0.90;0.70;;;15.80;56.20;;;;;;5135570;28;20455;-73
2022/09/16 02:09:41;;;;;;;0.90;0.70;;;15.80;55.90;;;;;;5135458;28;20729;-72
2022/09/16 02:12:12;;;;;;;1.20;0.70;;;15.80;55.60;;;;;;5135134;28;20479;-72
2022/09/16 02:14:42;;;;;;;1.53;0.70;;;15.90;39.60;;;;;;5133271;28;20444;-72
2022/09/16 02:17:11;;;;;;;1.47;0.60;;;15.90;21.70;;;;;;5135851;28;20738;-72
2022/09/16 02:19:42;;;;;;;0.97;0.60;;;15.70;7.10;;;;;;5135146;28;20893;-72
2022/09/16 02:22:13;;;;;;;0.90;0.53;;;15.70;24.30;;;;;;5135364;28;20443;-72
2022/09/16 02:24:43;;;;;;;1.37;0.60;;;15.60;15.50;;;;;;5132769;28;20462;-72
2022/09/16 02:27:15;;;;;;;1.37;0.50;;;15.60;25.90;;;;;;5135861;28;20535;-73
2022/09/16 02:29:47;;;;;;;0.83;0.40;;;15.50;9.90;;;;;;5132949;28;20451;-73
2022/09/16 02:32:15;;;;;;;1.00;0.60;;;15.50;27.40;;;;;;5134886;27;20487;-74
2022/09/16 02:34:47;;;;;;;0.80;0.50;;;15.50;8.30;;;;;;5130798;28;20448;-74
2022/09/16 02:37:18;;;;;;;0.90;0.60;;;15.40;12.50;;;;;;5106669;28;20935;-74
2022/09/16 02:39:47;;;;;;;0.87;0.60;;;15.30;5.50;;;;;;5111849;28;20441;-73
2022/09/16 02:42:15;;;;;;;1.60;0.60;;;15.50;29.70;;;;;;5113859;28;20737;-73
2022/09/16 02:44:43;;;;;;;0.63;0.50;;;15.60;13.40;;;;;;5097804;28;20949;-74
2022/09/16 02:47:16;;;;;;;1.80;0.50;;;15.60;4.90;;;;;;5100963;28;20524;-73
2022/09/16 02:49:54;;;;;;;1.03;0.57;;;15.50;1.00;;;;;;5098142;28;20449;-73
2022/09/16 02:52:28;;;;;;;1.97;0.50;;;15.30;1.00;;;;;;5101179;28;20576;-73
2022/09/16 02:55:01;;;;;;;0.70;0.60;;;15.10;21.20;;;;;;5098354;28;20516;-73
2022/09/16 02:57:29;;;;;;;1.93;0.60;;;15.20;30.20;;;;;;5100469;28;20937;-73
2022/09/16 02:59:57;;;;;;;0.70;0.50;;;15.20;20.80;;;;;;5098176;28;20449;-73
2022/09/16 03:02:24;;;;;;;0.87;0.60;;;15.40;12.20;;;;;;5100193;28;20731;-73
2022/09/16 03:04:53;;;;;;;0.80;0.60;;;15.40;1.00;;;;;;5100145;28;20446;-73
2022/09/16 03:07:20;;;;;;;1.10;0.50;;;15.50;1.00;;;;;;5098197;28;20467;-73
2022/09/16 03:09:48;;;;;;;0.80;0.50;;;15.50;6.80;;;;;;5099830;28;20446;-72
2022/09/16 03:12:45;;;;;;;0.80;0.50;;;15.50;1.00;;;;;;5097926;28;20507;-72
2022/09/16 03:15:30;;;;;;;0.90;0.50;;;15.40;1.00;;;;;;5083205;28;20536;-72
2022/09/16 03:18:21;;;;;;;1.30;0.50;;;15.40;1.00;;;;;;5098037;28;20475;-74
2022/09/16 03:20:57;;;;;;;0.90;0.63;;;15.30;1.00;;;;;;5083450;28;20445;-72
2022/09/16 03:23:35;;;;;;;1.30;0.43;;;15.30;7.20;;;;;;5097308;28;20445;-72
2022/09/16 03:26:09;;;;;;;0.83;0.50;;;15.30;13.90;;;;;;5099957;28;20437;-72
2022/09/16 03:28:43;;;;;;;23.10;15.67;;;15.40;2.10;;;;;;5098751;28;20546;-72
2022/09/16 03:31:16;;;;;;;1.30;0.97;;;15.40;1.00;;;;;;5099302;28;20478;-73
2022/09/16 03:33:54;;;;;;;1.00;0.50;;;15.50;1.00;;;;;;5096699;28;20448;-73
2022/09/16 03:36:29;;;;;;;4.47;0.50;;;15.60;1.00;;;;;;5099595;28;20739;-73
2022/09/16 03:38:58;;;;;;;0.90;0.60;;;15.60;1.00;;;;;;5097027;28;20449;-73
2022/09/16 03:41:27;;;;;;;1.77;0.43;;;15.60;1.00;;;;;;5099538;28;20716;-72
2022/09/16 03:43:56;;;;;;;0.77;0.40;;;15.60;1.00;;;;;;5096731;28;20960;-73
2022/09/16 03:46:23;;;;;;;2.00;0.50;;;15.60;1.00;;;;;;5098101;28;20430;-73
2022/09/16 03:48:50;;;;;;;0.60;0.50;;;15.70;1.00;;;;;;5095301;28;20915;-72
2022/09/16 03:51:17;;;;;;;0.60;0.40;;;15.70;1.00;;;;;;5098337;28;20448;-72
2022/09/16 03:53:45;;;;;;;3.10;0.50;;;15.70;1.00;;;;;;5096308;28;20485;-73
2022/09/16 03:56:12;;;;;;;0.50;0.30;;;15.80;1.00;;;;;;5097945;28;20460;-72
2022/09/16 03:58:39;;;;;;;0.80;0.50;;;15.70;1.00;;;;;;5096964;28;20457;-73
2022/09/16 04:01:06;;;;;;;0.87;0.50;;;15.60;1.00;;;;;;5099067;28;20899;-72
2022/09/16 04:03:35;;;;;;;1.27;0.40;;;15.50;1.00;;;;;;5097018;28;20450;-74
2022/09/16 04:06:02;;;;;;;0.63;0.43;;;15.40;1.00;;;;;;5097116;28;20554;-73
2022/09/16 04:08:29;;;;;;;0.73;0.50;;;15.40;5.30;;;;;;5094739;28;20445;-74
2022/09/16 04:10:58;;;;;;;0.77;0.40;;;15.40;2.30;;;;;;5098511;28;20869;-74
2022/09/16 04:13:26;;;;;;;1.43;0.50;;;15.40;1.00;;;;;;5098051;28;20580;-74
2022/09/16 04:15:53;;;;;;;0.50;0.40;;;15.40;1.00;;;;;;5098615;28;20449;-74
2022/09/16 04:18:20;;;;;;;1.77;0.40;;;15.40;1.00;;;;;;5097965;28;20457;-74
2022/09/16 04:20:47;;;;;;;1.30;0.50;;;15.50;1.00;;;;;;5097681;28;20499;-74
2022/09/16 04:23:13;;;;;;;1.53;0.50;;;15.50;1.00;;;;;;5095208;28;20902;-74
2022/09/16 04:25:40;;;;;;;1.50;0.40;;;15.50;1.00;;;;;;5098288;28;20924;-73
2022/09/16 04:28:08;;;;;;;0.60;0.40;;;15.60;1.00;;;;;;5096013;28;20465;-72
2022/09/16 04:30:36;;;;;;;0.73;0.47;;;15.60;1.00;;;;;;5098518;28;20446;-74
2022/09/16 04:33:03;;;;;;;1.67;0.47;;;15.60;1.00;;;;;;5096023;28;20578;-74
2022/09/16 04:35:30;;;;;;;0.70;0.40;;;15.70;1.00;;;;;;5098560;28;20430;-74
2022/09/16 04:37:57;;;;;;;1.03;0.57;;;15.70;1.00;;;;;;5095340;28;20477;-74
2022/09/16 04:40:24;;;;;;;0.77;0.50;;;15.70;1.00;;;;;;5098014;28;20475;-74
2022/09/16 04:42:51;;;;;;;0.80;0.50;;;15.70;1.00;;;;;;5095363;28;20739;-74
2022/09/16 04:45:20;;;;;;;1.63;0.50;;;15.70;1.00;;;;;;5096776;28;20456;-74
2022/09/16 04:47:46;;;;;;;1.33;0.50;;;15.60;1.00;;;;;;5095958;28;20544;-74
2022/09/16 04:50:13;;;;;;;0.70;0.50;;;15.60;1.00;;;;;;5098334;28;20455;-73
2022/09/16 04:52:40;;;;;;;2.00;0.40;;;15.60;1.00;;;;;;5096625;28;20485;-74
2022/09/16 04:55:08;;;;;;;0.80;0.50;;;15.60;12.20;;;;;;5098754;28;20757;-74
2022/09/16 04:57:35;;;;;;;0.60;0.40;;;15.60;23.40;;;;;;5098086;28;20457;-74
2022/09/16 05:00:02;;;;;;;1.10;0.60;;;15.60;20.50;;;;;;5095280;28;21061;-74
2022/09/16 05:02:30;;;;;;;0.87;0.40;;;15.60;7.60;;;;;;5097801;28;20468;-74
2022/09/16 05:04:57;;;;;;;0.70;0.50;;;15.60;3.00;;;;;;5096081;28;20552;-74
2022/09/16 05:07:24;;;;;;;0.77;0.50;;;15.60;8.60;;;;;;5097167;28;20540;-74
2022/09/16 05:09:51;;;;;;;1.37;0.63;;;15.60;7.70;;;;;;5095052;28;20885;-74
2022/09/16 05:12:18;;;;;;;0.93;0.50;;;15.60;12.80;;;;;;5096596;28;20804;-74
2022/09/16 05:14:44;;;;;;;0.80;0.50;;;15.70;1.00;;;;;;5097734;28;20464;-74
2022/09/16 05:17:12;;;;;;;0.60;0.40;;;15.60;1.00;;;;;;5096308;28;20458;-72
2022/09/16 05:19:40;;;;;;;0.60;0.40;;;15.60;12.40;;;;;;5096980;28;20446;-73
2022/09/16 05:22:07;;;;;;;1.23;0.60;;;15.60;16.70;;;;;;5093764;28;20488;-73
2022/09/16 05:24:35;;;;;;;2.30;0.60;;;15.60;12.70;;;;;;5083474;28;20549;-73
2022/09/16 05:27:02;;;;;;;0.70;0.50;;;15.60;13.10;;;;;;5074366;28;20789;-72
2022/09/16 05:29:29;;;;;;;0.60;0.40;;;15.60;20.30;;;;;;5076317;28;20458;-72
2022/09/16 05:31:56;;;;;;;2.30;0.93;;;15.40;45.10;;;;;;5075026;28;20572;-74
2022/09/16 05:34:27;;;;;;;1.10;0.67;;;15.40;57.70;;;;;;5077972;28;20496;-72
2022/09/16 05:36:56;;;;;;;1.30;0.60;;;15.40;56.10;;;;;;5073879;28;20933;-73
2022/09/16 05:39:23;;;;;;;1.53;0.80;;;15.30;94.00;;;;;;5077010;28;20830;-73
2022/09/16 05:41:53;;;;;;;1.10;0.60;;;15.30;90.70;;;;;;5074029;28;20454;-73
2022/09/16 05:44:20;;;;;;;0.60;0.43;;;15.20;92.70;;;;;;5076162;28;20449;-72
2022/09/16 05:46:49;;;;;;;2.17;0.70;;;15.10;97.00;;;;;;5073751;28;20539;-74
2022/09/16 05:49:19;;;;;;;1.57;1.00;;;15.10;99.90;;;;;;5076343;28;20448;-74
2022/09/16 05:51:47;;;;;;;0.73;0.50;;;15.10;99.90;;;;;;5072761;28;20462;-72
2022/09/16 05:54:17;;;;;;;1.03;0.60;;;15.20;99.90;;;;;;5076264;28;21131;-72
2022/09/16 05:56:44;;;;;;;1.00;0.57;;;15.20;76.40;;;;;;5073803;28;20554;-72
2022/09/16 05:59:12;;;;;;;1.97;0.60;;;15.30;92.20;;;;;;5076142;28;20453;-72
2022/09/16 06:01:39;;;;;;;0.80;0.60;;;15.30;93.80;;;;;;5075765;28;20893;-73
2022/09/16 06:04:09;;;;;;;1.03;0.60;;;15.10;97.10;;;;;;5076797;28;20443;-74
2022/09/16 06:06:38;;;;;;;1.70;0.70;;;14.90;99.90;;;;;;5073593;28;20457;-73
2022/09/16 06:09:07;;;;;;;1.87;0.80;;;14.90;99.90;;;;;;5077372;28;20454;-73
2022/09/16 06:11:37;;;;;;;0.90;0.60;;;14.80;99.90;;;;;;5074825;28;20454;-74
2022/09/16 06:14:04;;;;;;;1.70;0.70;;;14.80;99.90;;;;;;5078449;28;20482;-74
2022/09/16 06:16:32;;;;;;;0.90;0.63;;;14.70;99.90;;;;;;5077976;28;20553;-75
2022/09/16 06:19:02;;;;;;;0.90;0.70;;;14.80;99.90;;;;;;5080743;28;20893;-74
2022/09/16 06:21:29;;;;;;;1.10;0.60;;;14.80;99.90;;;;;;5079465;28;20462;-74
2022/09/16 06:23:57;;;;;;;0.90;0.60;;;14.80;99.90;;;;;;5081256;28;20496;-74
2022/09/16 06:26:26;;;;;;;1.23;0.60;;;14.90;99.90;;;;;;5085708;28;20449;-74
2022/09/16 06:28:55;;;;;;;1.03;0.60;;;14.90;99.90;;;;;;5091795;28;20453;-72
2022/09/16 06:31:23;;;;;;;2.50;0.70;;;14.90;99.90;;;;;;5089856;28;20511;-74
2022/09/16 06:33:53;;;;;;;1.30;0.63;;;14.90;99.90;;;;;;5090506;28;20594;-74
2022/09/16 06:36:22;;;;;;;3.53;0.60;;;14.90;99.90;;;;;;5088711;28;20447;-74
2022/09/16 06:38:50;;;;;;;0.80;0.50;;;15.00;99.90;;;;;;5080360;28;20473;-74
2022/09/16 06:41:19;;;;;;;0.90;0.67;;;15.20;99.90;;;;;;5077093;28;20452;-74
2022/09/16 06:43:47;;;;;;;0.83;0.60;;;15.30;99.90;;;;;;5079242;28;20438;-74
2022/09/16 06:46:17;;;;;;;0.70;0.53;;;15.30;97.10;;;;;;5077893;28;20454;-74
2022/09/16 06:48:50;;;;;;;0.70;0.60;;;15.30;99.90;;;;;;5079508;28;20870;-74
2022/09/16 06:51:21;;;;;;;1.20;0.63;;;15.20;99.90;;;;;;5092410;28;20458;-75
2022/09/16 06:53:48;;;;;;;1.53;0.67;;;15.10;99.90;;;;;;5078408;28;20462;-75
2022/09/16 06:56:17;;;;;;;1.33;0.60;;;15.00;99.90;;;;;;5075898;28;20450;-74
2022/09/16 06:58:48;;;;;;;2.40;0.60;;;15.00;99.90;;;;;;5077710;28;20447;-75
2022/09/16 07:01:18;;;;;;;2.00;0.80;;;15.10;99.90;;;;;;5074169;28;20458;-75
2022/09/16 07:03:47;;;;;;;2.83;0.73;;;15.10;99.90;;;;;;5079672;28;20447;-76
2022/09/16 07:06:14;;;;;;;1.77;0.70;;;15.10;99.90;;;;;;5085887;28;20454;-78
2022/09/16 07:08:42;;;;;;;0.93;0.57;;;15.00;99.90;;;;;;5086450;28;20446;-78
2022/09/16 07:11:11;;;;;;;0.87;0.50;;;14.70;99.90;;;;;;5090540;28;20678;-77
2022/09/16 07:13:39;;;;;;;1.30;0.70;;;14.70;99.90;;;;;;5078801;28;20481;-77
2022/09/16 07:16:08;;;;;;;0.90;0.60;;;14.40;99.90;;;;;;5092185;28;20501;-78
2022/09/16 07:18:37;;;;;;;1.13;0.63;;;14.40;99.90;;;;;;5099216;28;20484;-77
2022/09/16 07:21:06;;;;;;;2.00;0.63;;;14.50;99.90;;;;;;5093182;28;20461;-77
2022/09/16 07:23:35;;;;;;;5.17;0.90;;;14.60;99.90;;;;;;5078233;28;20745;-77
2022/09/16 07:26:03;;;;;;;1.20;0.90;;;14.70;99.90;;;;;;5075693;28;20677;-78
2022/09/16 07:28:31;;;;;;;4.03;0.60;;;14.70;99.90;;;;;;5091678;28;20464;-77
2022/09/16 07:31:00;;;;;;;1.97;0.70;;;14.50;99.90;;;;;;5087066;28;20449;-77
2022/09/16 07:33:27;;;;;;;1.00;0.60;;;14.40;99.90;;;;;;5097662;28;20488;-76
2022/09/16 07:36:00;;;;;;;1.53;0.77;;;14.40;99.90;;;;;;5085577;28;20453;-77
2022/09/16 07:38:27;;;;;;;3.03;0.70;;;14.30;99.90;;;;;;5076404;28;20454;-75
2022/09/16 07:40:53;;;;;;;1.30;0.63;;;14.40;99.90;;;;;;5070633;28;20536;-74
2022/09/16 07:43:20;;;;;;;0.77;0.57;;;14.50;99.90;;;;;;5076102;28;20445;-75
2022/09/16 07:45:47;;;;;;;2.90;0.70;;;14.60;99.90;;;;;;5066246;28;20993;-74
2022/09/16 07:48:14;;;;;;;1.00;0.70;;;14.70;99.90;;;;;;5058060;28;20447;-75
2022/09/16 07:50:41;;;;;;;1.67;0.70;;;14.50;99.90;;;;;;5056512;28;20443;-74
2022/09/16 07:53:10;;;;;;;2.23;0.60;;;14.30;99.90;;;;;;5062177;28;20845;-74
2022/09/16 07:55:37;;;;;;;1.53;0.80;;;14.30;99.90;;;;;;5065765;28;20442;-76
2022/09/16 07:58:04;;;;;;;1.83;0.70;;;14.30;99.90;;;;;;5073669;28;20442;-77
2022/09/16 08:00:31;;;;;;;1.40;0.70;;;14.30;99.90;;;;;;5075647;28;20538;-77
2022/09/16 08:02:57;;;;;;;3.10;0.90;;;14.40;99.90;;;;;;5070632;28;21020;-76
2022/09/16 08:05:24;;;;;;;1.90;0.80;;;14.20;99.90;;;;;;5057681;28;20451;-76
2022/09/16 08:07:51;;;;;;;1.07;0.70;;;14.00;99.90;;;;;;5071612;28;20458;-76
2022/09/16 08:10:20;;;;;;;1.87;0.80;;;14.20;99.90;;;;;;5077447;28;20542;-76
2022/09/16 08:12:50;;;;;;;2.80;0.80;;;14.40;99.90;;;;;;5065516;28;20628;-76
2022/09/16 08:15:19;;;;;;;1.30;0.70;;;14.50;99.90;;;;;;5057984;28;20451;-76
2022/09/16 08:17:46;;;;;;;0.90;0.70;;;14.50;99.90;;;;;;5060065;28;20451;-76
2022/09/16 08:20:13;;;;;;;2.13;0.90;;;14.60;99.90;;;;;;5074527;28;20442;-77
2022/09/16 08:22:40;;;;;;;1.90;0.70;;;14.50;99.90;;;;;;5073324;28;20458;-76
2022/09/16 08:25:10;;;;;;;0.87;0.70;;;14.40;99.90;;;;;;5072976;28;20521;-76
2022/09/16 08:27:38;;;;;;;2.67;1.00;;;14.40;99.90;;;;;;5065494;28;20801;-76
2022/09/16 08:30:05;;;;;;;1.67;0.80;;;14.60;99.90;;;;;;5069425;28;20446;-76
2022/09/16 08:32:32;;;;;;;1.90;0.90;;;14.40;99.90;;;;;;5081219;28;20458;-77
2022/09/16 08:34:59;;;;;;;1.23;0.90;;;14.30;99.90;;;;;;5076070;28;20324;-76
2022/09/16 08:37:28;;;;;;;1.00;0.80;;;14.30;99.90;;;;;;5090311;28;20476;-76
2022/09/16 08:39:57;;;;;;;0.90;0.60;;;14.30;99.90;;;;;;5097760;28;20441;-76
2022/09/16 08:42:31;;;;;;;1.00;0.70;;;14.60;99.90;;;;;;5091557;28;20556;-77
2022/09/16 08:45:19;;;;;;;2.03;0.70;;;14.50;99.90;;;;;;5084179;28;20478;-76
2022/09/16 08:48:01;;;;;;;1.10;0.70;;;14.40;99.90;;;;;;5072934;28;20815;-76
2022/09/16 08:50:31;;;;;;;1.40;1.00;;;14.70;99.90;;;;;;5078182;28;20446;-75
2022/09/16 08:53:03;;;;;;;1.83;0.77;;;14.80;99.90;;;;;;5075372;28;20468;-80
2022/09/16 08:58:20;;;;;;;1.90;0.77;;;14.40;99.90;;;;;;5172565;27;20520;-81
2022/09/16 09:00:53;;;;;;;1.63;0.80;;;14.20;99.90;;;;;;5152351;27;20450;-77
2022/09/16 09:03:33;;;;;;;1.23;0.80;;;14.10;99.90;;;;;;5139056;27;20493;-76
2022/09/16 09:06:04;;;;;;;1.03;0.70;;;14.10;99.90;;;;;;5132037;28;20450;-76
2022/09/16 09:08:42;;;;;;;1.37;0.80;;;14.20;99.90;;;;;;5135549;27;20456;-76
2022/09/16 09:11:17;;;;;;;1.20;0.80;;;14.10;99.90;;;;;;5142260;27;20538;-76
2022/09/16 09:13:59;;;;;;;2.23;1.00;;;14.20;99.90;;;;;;5148765;27;20442;-76
2022/09/16 09:16:37;;;;;;;2.40;0.80;;;14.40;99.90;;;;;;5151368;27;20993;-76
2022/09/16 09:19:17;;;;;;;2.10;0.73;;;14.50;99.90;;;;;;5156633;27;20442;-77
2022/09/16 09:21:54;;;;;;;2.00;0.90;;;14.60;99.90;;;;;;5148255;27;20456;-77
2022/09/16 09:24:44;;;;;;;2.67;0.70;;;14.70;99.90;;;;;;5152113;27;20512;-77
2022/09/16 09:27:15;;;;;;;3.13;0.67;;;14.90;99.90;;;;;;5151870;27;21107;-76
2022/09/16 09:30:13;;;;;;;1.30;0.60;;;15.00;99.90;;;;;;5156805;27;20483;-76
2022/09/16 09:33:05;;;;;;;1.87;0.60;;;15.00;99.90;;;;;;5139744;27;20470;-78
2022/09/16 09:35:49;;;;;;;1.50;0.60;;;15.00;99.90;;;;;;5151415;27;20507;-78
2022/09/16 09:38:34;;;;;;;0.80;0.50;;;14.80;99.90;;;;;;5152188;27;20483;-78
2022/09/16 09:41:06;;;;;;;1.00;0.73;;;14.80;99.90;;;;;;5153209;27;20525;-78
2022/09/16 09:43:39;;;;;;;1.80;0.70;;;14.80;99.90;;;;;;5151704;27;20281;-76
2022/09/16 09:46:12;;;;;;;2.97;0.70;;;14.70;99.90;;;;;;5134648;27;20436;-75
2022/09/16 09:48:44;;;;;;;5.97;0.80;;;14.70;99.90;;;;;;5150382;27;20455;-75
2022/09/16 09:51:17;;;;;;;1.53;0.90;;;14.80;99.90;;;;;;5147626;27;20759;-74
2022/09/16 09:53:51;;;;;;;1.23;0.80;;;15.10;99.90;;;;;;5134099;27;20462;-75
2022/09/16 09:56:26;;;;;;;0.90;0.80;;;15.40;99.90;;;;;;5139672;27;20822;-74
2022/09/16 09:59:02;;;;;;;1.13;0.70;;;15.70;99.90;;;;;;5141215;27;20877;-74
2022/09/16 10:01:30;;;;;;;1.73;0.67;;;15.60;99.90;;;;;;5152321;27;20823;-74
2022/09/16 10:03:59;;;;;;;0.97;0.70;;;15.40;99.90;;;;;;5152606;27;20445;-73
2022/09/16 10:06:28;;;;;;;2.00;1.00;;;15.00;99.90;;;;;;5136375;27;20467;-74
2022/09/16 10:08:58;;;;;;;1.10;0.70;;;14.70;99.90;;;;;;5144177;27;20518;-74
2022/09/16 10:11:26;;;;;;;1.43;0.70;;;14.60;99.90;;;;;;5137859;27;20482;-74
2022/09/16 10:13:56;;;;;;;0.90;0.60;;;14.60;99.90;;;;;;5140376;27;20484;-74
2022/09/16 10:16:28;;;;;;;0.90;0.60;;;14.70;99.90;;;;;;5136963;27;20447;-74
2022/09/16 10:19:00;;;;;;;0.80;0.57;;;14.60;99.90;;;;;;5141009;27;21025;-74
2022/09/16 10:21:44;;;;;;;5.37;0.90;;;14.60;99.90;;;;;;5138793;27;20492;-74
2022/09/16 10:24:32;;;;;;;1.03;0.60;;;14.70;99.90;;;;;;5140466;27;20447;-74
2022/09/16 10:27:01;;;;;;;1.23;0.80;;;15.00;99.90;;;;;;5118168;28;20452;-74
2022/09/16 10:29:29;;;;;;;2.37;0.60;;;15.00;99.90;;;;;;5137766;27;20458;-74
2022/09/16 10:31:58;;;;;;;0.90;0.60;;;15.00;99.90;;;;;;5138550;27;20546;-74
2022/09/16 10:34:32;;;;;;;1.60;0.60;;;15.00;99.90;;;;;;5140013;27;20454;-75
2022/09/16 10:37:01;;;;;;;0.80;0.50;;;15.10;99.90;;;;;;5134803;27;20744;-75
2022/09/16 10:39:30;;;;;;;0.80;0.70;;;15.10;99.90;;;;;;5138506;27;20442;-75
2022/09/16 10:41:57;;;;;;;1.20;0.60;;;15.30;99.90;;;;;;5135675;27;20439;-74
2022/09/16 10:44:28;;;;;;;1.10;0.70;;;15.00;99.90;;;;;;5138354;27;20450;-75
2022/09/16 10:46:57;;;;;;;0.77;0.50;;;15.20;99.90;;;;;;5135587;27;20448;-74
2022/09/16 10:49:33;;;;;;;0.80;0.57;;;15.20;99.90;;;;;;5138206;27;20942;-75
2022/09/16 10:52:16;;;;;;;1.73;0.63;;;15.20;99.90;;;;;;5134884;27;20461;-75
2022/09/16 10:54:44;;;;;;;0.80;0.70;;;15.20;99.90;;;;;;5137561;27;20895;-74
2022/09/16 10:57:25;;;;;;;1.23;0.70;;;15.00;99.90;;;;;;5138351;27;20901;-73
2022/09/16 11:00:13;;;;;;;1.30;0.70;;;14.90;99.90;;;;;;5138188;27;20489;-74
2022/09/16 11:03:12;;;;;;;1.10;0.80;;;14.90;99.90;;;;;;5137371;27;20554;-74
2022/09/16 11:05:50;;;;;;;1.00;0.60;;;14.90;99.90;;;;;;5139703;27;20509;-74
2022/09/16 11:08:26;;;;;;;1.10;0.80;;;15.00;99.90;;;;;;5134071;27;20463;-74
2022/09/16 11:11:01;;;;;;;1.27;0.60;;;15.10;99.90;;;;;;5136145;27;20465;-74
2022/09/16 11:13:37;;;;;;;1.07;0.70;;;15.10;99.90;;;;;;5136205;27;20461;-76
2022/09/16 11:16:17;;;;;;;1.20;0.60;;;15.00;99.90;;;;;;5135160;27;20491;-74
2022/09/16 11:18:56;;;;;;;1.30;0.67;;;15.20;99.90;;;;;;5115726;28;20479;-75
2022/09/16 11:21:54;;;;;;;1.23;0.60;;;15.10;99.90;;;;;;5117267;28;20443;-75
2022/09/16 11:24:58;;;;;;;1.20;0.60;;;15.10;99.90;;;;;;5115941;28;20440;-76
2022/09/16 11:27:36;;;;;;;1.10;0.50;;;15.20;98.10;;;;;;5115776;28;20487;-75
2022/09/16 11:30:09;;;;;;;0.80;0.60;;;15.10;99.90;;;;;;5116932;28;20444;-76
2022/09/16 11:33:05;;;;;;;1.00;0.50;;;15.00;99.90;;;;;;5114479;28;20452;-75
2022/09/16 11:36:04;;;;;;;2.03;0.70;;;15.10;99.10;;;;;;5114717;28;20481;-75
2022/09/16 11:38:41;;;;;;;1.63;0.50;;;15.10;99.90;;;;;;5112502;28;20480;-75
2022/09/16 11:41:19;;;;;;;0.60;0.40;;;15.20;83.50;;;;;;5115578;28;20428;-75
2022/09/16 11:44:05;;;;;;;0.83;0.43;;;15.10;65.10;;;;;;5116730;28;20463;-75
2022/09/16 11:46:40;;;;;;;0.83;0.50;;;15.50;91.70;;;;;;5117137;28;20444;-75
2022/09/16 11:49:27;;;;;;;1.00;0.50;;;15.80;49.70;;;;;;5112565;28;20894;-75
2022/09/16 11:52:06;;;;;;;0.70;0.50;;;16.00;5.00;;;;;;5113285;28;20526;-75
2022/09/16 11:55:05;;;;;;;1.30;0.50;;;16.40;10.70;;;;;;5115401;28;20445;-75
2022/09/16 11:57:37;;;;;;;1.43;0.50;;;16.60;1.00;;;;;;5112838;28;20501;-74
2022/09/16 12:00:11;;;;;;;0.70;0.50;;;16.90;1.00;;;;;;5116626;28;20948;-74
2022/09/16 12:02:42;;;;;;;1.30;0.40;;;17.10;1.00;;;;;;5112542;28;20963;-75
2022/09/16 12:05:16;;;;;;;0.80;0.40;;;17.30;1.00;;;;;;5117956;28;20433;-74
2022/09/16 12:07:50;;;;;;;0.90;0.43;;;17.20;1.00;;;;;;5113404;28;20436;-74
2022/09/16 12:10:22;;;;;;;1.67;0.40;;;17.00;1.00;;;;;;5118028;28;20536;-74
2022/09/16 12:12:56;;;;;;;0.67;0.40;;;17.00;1.00;;;;;;5115339;28;20453;-75
2022/09/16 12:15:29;;;;;;;1.27;0.40;;;17.10;1.00;;;;;;5116284;28;20449;-74
2022/09/16 12:18:00;;;;;;;1.20;0.40;;;17.20;1.00;;;;;;5113107;28;20520;-74
2022/09/16 12:20:30;;;;;;;0.83;0.50;;;17.40;1.00;;;;;;5117136;28;20452;-74
2022/09/16 12:23:05;;;;;;;0.50;0.40;;;17.30;1.00;;;;;;5114144;27;20547;-75
2022/09/16 12:25:39;;;;;;;0.80;0.43;;;16.90;1.00;;;;;;5116662;28;20554;-75
2022/09/16 12:28:15;;;;;;;0.80;0.33;;;16.70;1.00;;;;;;5114606;28;20508;-75
2022/09/16 12:30:45;;;;;;;0.80;0.40;;;16.50;1.00;;;;;;5115679;28;20445;-74
2022/09/16 12:33:18;;;;;;;0.70;0.40;;;16.50;1.00;;;;;;5114116;28;20467;-76
2022/09/16 12:35:48;;;;;;;1.53;0.40;;;16.50;1.00;;;;;;5115495;28;20433;-74
2022/09/16 12:38:18;;;;;;;2.30;0.33;;;16.30;1.00;;;;;;5111757;28;20480;-77
2022/09/16 12:40:59;;;;;;;0.70;0.50;;;16.20;99.90;;;;;;5116309;28;20440;-76
2022/09/16 12:43:51;;;;;;;1.13;0.40;;;16.20;1.00;;;;;;5116772;28;20490;-77
2022/09/16 12:46:34;;;;;;;0.93;0.40;;;16.00;1.00;;;;;;5117658;28;20483;-76
2022/09/16 12:49:30;;;;;;;0.60;0.40;;;16.10;1.00;;;;;;5114745;28;20880;-77
2022/09/16 12:52:18;;;;;;;0.83;0.40;;;16.20;1.00;;;;;;5114280;28;20446;-76
2022/09/16 12:55:13;;;;;;;1.07;0.60;;;16.40;1.00;;;;;;5111952;28;20451;-76
2022/09/16 12:57:53;;;;;;;1.63;0.60;;;16.40;1.00;;;;;;5115571;28;20578;-76
2022/09/16 13:00:24;;;;;;;1.90;0.40;;;16.30;1.00;;;;;;5113084;28;20555;-75
2022/09/16 13:02:54;;;;;;;0.70;0.40;;;16.30;1.00;;;;;;5116637;28;20843;-76
2022/09/16 13:05:26;;;;;;;1.73;0.40;;;16.40;1.00;;;;;;5113748;28;20551;-75
2022/09/16 13:07:55;;;;;;;1.13;0.50;;;16.60;1.00;;;;;;5117095;28;20876;-75
2022/09/16 13:10:29;;;;;;;0.93;0.40;;;16.80;1.00;;;;;;5111609;28;20673;-74
2022/09/16 13:12:59;;;;;;;0.70;0.43;;;16.70;1.00;;;;;;5115763;28;20552;-74
2022/09/16 13:15:30;;;;;;;0.60;0.40;;;16.70;1.00;;;;;;5113202;28;20559;-75
2022/09/16 13:18:09;;;;;;;0.70;0.40;;;16.60;99.90;;;;;;5115854;28;20486;-74
2022/09/16 13:20:40;;;;;;;2.17;0.40;;;16.60;1.00;;;;;;5113475;28;20551;-75
2022/09/16 13:23:13;;;;;;;0.70;0.40;;;16.50;1.00;;;;;;5116597;28;20748;-75